createdAt,value
2019-02-22T00:00:03.854Z,22.60
2019-02-22T00:01:03.819Z,21.40
2019-02-22T00:02:03.823Z,21.20
2019-02-22T00:03:03.805Z,22.50
2019-02-22T00:04:03.779Z,23.20
2019-02-22T00:05:03.795Z,24.70
2019-02-22T00:06:12.429Z,23.70
2019-02-22T00:07:03.790Z,24.00
2019-02-22T00:08:03.752Z,23.60
2019-02-22T00:09:03.764Z,23.60
2019-02-22T00:10:03.712Z,22.80
2019-02-22T00:11:03.752Z,22.20
2019-02-22T00:12:03.722Z,22.20
2019-02-22T00:13:03.679Z,22.50
2019-02-22T00:14:03.693Z,22.20
2019-02-22T00:15:03.669Z,21.30
2019-02-22T00:16:03.652Z,24.80
2019-02-22T00:17:03.682Z,24.70
2019-02-22T00:18:03.637Z,22.90
2019-02-22T00:19:03.690Z,23.80
2019-02-22T00:20:03.626Z,22.00
2019-02-22T00:21:03.614Z,21.50
2019-02-22T00:22:03.609Z,24.00
2019-02-22T00:23:11.140Z,23.30
2019-02-22T00:24:03.593Z,23.40
2019-02-22T00:25:03.564Z,22.10
2019-02-22T00:26:03.563Z,22.40
2019-02-22T00:27:03.581Z,21.20
2019-02-22T00:28:03.527Z,23.10
2019-02-22T00:29:03.531Z,22.30
2019-02-22T00:30:03.507Z,20.40
2019-02-22T00:31:11.070Z,22.20
2019-02-22T00:32:03.506Z,21.40
2019-02-22T00:33:11.032Z,21.00
2019-02-22T00:34:03.519Z,21.50
2019-02-22T00:35:03.523Z,20.70
2019-02-22T00:36:03.478Z,21.40
2019-02-22T00:37:03.463Z,20.80
2019-02-22T00:38:03.438Z,20.60
2019-02-22T00:39:03.425Z,21.30
2019-02-22T00:40:03.394Z,23.20
2019-02-22T00:41:03.391Z,24.60
2019-02-22T00:42:03.390Z,22.10
2019-02-22T00:43:03.400Z,23.00
2019-02-22T00:44:03.357Z,22.80
2019-02-22T00:45:03.345Z,22.30
2019-02-22T00:46:03.347Z,22.10
2019-02-22T00:47:03.359Z,22.70
2019-02-22T00:48:03.301Z,21.60
2019-02-22T00:49:03.342Z,21.00
2019-02-22T00:50:03.288Z,21.90
2019-02-22T00:51:03.293Z,22.00
2019-02-22T00:52:03.262Z,22.20
2019-02-22T00:53:03.848Z,20.70
2019-02-22T00:54:03.266Z,21.10
2019-02-22T00:55:03.227Z,21.00
2019-02-22T00:56:03.235Z,20.30
2019-02-22T00:57:10.777Z,20.90
2019-02-22T00:58:03.238Z,21.50
2019-02-22T00:59:03.195Z,20.50
2019-02-22T01:00:03.197Z,22.20
2019-02-22T01:01:03.178Z,20.20
2019-02-22T01:02:03.198Z,21.30
2019-02-22T01:03:10.706Z,20.70
2019-02-22T01:04:03.169Z,21.00
2019-02-22T01:05:10.692Z,21.10
2019-02-22T01:06:03.176Z,21.90
2019-02-22T01:07:10.663Z,20.40
2019-02-22T01:08:03.139Z,21.50
2019-02-22T01:09:03.082Z,20.70
2019-02-22T01:10:03.079Z,21.30
2019-02-22T01:11:03.062Z,19.70
2019-02-22T01:12:03.045Z,20.60
2019-02-22T01:13:03.035Z,20.80
2019-02-22T01:14:03.054Z,21.40
2019-02-22T01:15:03.040Z,20.80
2019-02-22T01:16:03.003Z,19.10
2019-02-22T01:17:03.015Z,20.30
2019-02-22T01:18:03.009Z,21.20
2019-02-22T01:19:02.992Z,21.50
2019-02-22T01:20:10.506Z,22.10
2019-02-22T01:21:02.976Z,20.60
2019-02-22T01:22:10.503Z,20.30
2019-02-22T01:23:02.935Z,22.60
2019-02-22T01:24:10.484Z,22.30
2019-02-22T01:25:02.957Z,21.70
2019-02-22T01:26:02.910Z,22.30
2019-02-22T01:27:02.921Z,22.80
2019-02-22T01:28:02.877Z,21.40
2019-02-22T01:29:02.890Z,23.30
2019-02-22T01:30:02.857Z,21.70
2019-02-22T01:31:02.869Z,23.00
2019-02-22T01:32:02.853Z,24.10
2019-02-22T01:33:02.829Z,21.80
2019-02-22T01:34:02.831Z,22.10
2019-02-22T01:35:02.800Z,22.30
2019-02-22T01:36:02.812Z,22.40
2019-02-22T01:37:02.780Z,22.00
2019-02-22T01:38:02.784Z,23.00
2019-02-22T01:39:02.803Z,22.40
2019-02-22T01:40:02.801Z,21.70
2019-02-22T01:41:02.743Z,20.90
2019-02-22T01:42:02.816Z,22.60
2019-02-22T01:43:02.722Z,21.60
2019-02-22T01:44:02.723Z,23.50
2019-02-22T01:45:02.723Z,24.20
2019-02-22T01:46:02.683Z,22.30
2019-02-22T01:47:02.689Z,23.40
2019-02-22T01:48:02.658Z,22.20
2019-02-22T01:49:02.654Z,23.70
2019-02-22T01:50:02.665Z,21.60
2019-02-22T01:51:02.637Z,24.20
2019-02-22T01:52:02.633Z,22.50
2019-02-22T01:53:02.627Z,21.50
2019-02-22T01:54:02.597Z,21.60
2019-02-22T01:55:02.627Z,22.30
2019-02-22T01:56:02.618Z,20.90
2019-02-22T01:57:02.567Z,19.90
2019-02-22T01:58:02.550Z,21.10
2019-02-22T01:59:02.610Z,23.60
2019-02-22T02:00:02.573Z,21.20
2019-02-22T02:01:02.542Z,24.20
2019-02-22T02:02:02.533Z,22.40
2019-02-22T02:03:02.528Z,21.40
2019-02-22T02:04:02.513Z,21.70
2019-02-22T02:05:02.512Z,20.50
2019-02-22T02:06:02.465Z,20.90
2019-02-22T02:07:02.453Z,20.70
2019-02-22T02:08:02.497Z,20.80
2019-02-22T02:09:02.490Z,22.50
2019-02-22T02:10:02.419Z,21.60
2019-02-22T02:11:02.427Z,21.30
2019-02-22T02:12:02.438Z,21.00
2019-02-22T02:13:02.431Z,22.70
2019-02-22T02:14:02.376Z,20.60
2019-02-22T02:15:02.389Z,20.90
2019-02-22T02:16:02.372Z,23.40
2019-02-22T02:17:02.360Z,21.80
2019-02-22T02:18:02.367Z,22.00
2019-02-22T02:19:02.329Z,22.40
2019-02-22T02:20:02.334Z,20.60
2019-02-22T02:21:02.330Z,21.80
2019-02-22T02:22:02.322Z,21.50
2019-02-22T02:23:02.279Z,21.70
2019-02-22T02:24:02.283Z,21.60
2019-02-22T02:25:02.267Z,21.20
2019-02-22T02:26:02.270Z,20.80
2019-02-22T02:27:02.250Z,21.90
2019-02-22T02:28:02.263Z,21.40
2019-02-22T02:29:02.216Z,21.80
2019-02-22T02:30:02.229Z,20.10
2019-02-22T02:31:02.247Z,22.50
2019-02-22T02:32:02.205Z,21.40
2019-02-22T02:33:02.180Z,21.90
2019-02-22T02:34:02.175Z,22.80
2019-02-22T02:35:02.155Z,22.10
2019-02-22T02:36:02.186Z,23.20
2019-02-22T02:37:02.141Z,21.90
2019-02-22T02:38:02.120Z,21.00
2019-02-22T02:39:02.109Z,22.60
2019-02-22T02:40:02.104Z,21.80
2019-02-22T02:41:09.918Z,20.90
2019-02-22T02:42:03.124Z,21.60
2019-02-22T02:43:02.074Z,21.70
2019-02-22T02:44:02.053Z,23.70
2019-02-22T02:45:02.056Z,23.20
2019-02-22T02:46:02.057Z,24.00
2019-02-22T02:47:02.060Z,24.70
2019-02-22T02:48:02.009Z,23.30
2019-02-22T02:49:02.020Z,23.50
2019-02-22T02:50:02.009Z,22.10
2019-02-22T02:51:01.988Z,22.20
2019-02-22T02:52:02.037Z,24.40
2019-02-22T02:53:01.990Z,24.50
2019-02-22T02:54:01.981Z,24.60
2019-02-22T02:55:01.967Z,25.70
2019-02-22T02:56:01.937Z,23.70
2019-02-22T02:57:01.968Z,24.00
2019-02-22T02:58:01.928Z,25.00
2019-02-22T02:59:01.918Z,23.80
2019-02-22T03:00:01.894Z,24.70
2019-02-22T03:01:01.928Z,25.50
2019-02-22T03:02:01.859Z,27.70
2019-02-22T03:03:01.879Z,27.10
2019-02-22T03:04:01.861Z,25.70
2019-02-22T03:05:01.847Z,26.10
2019-02-22T03:06:01.862Z,27.20
2019-02-22T03:07:01.828Z,27.70
2019-02-22T03:08:01.820Z,26.20
2019-02-22T03:09:01.811Z,27.00
2019-02-22T03:10:01.787Z,26.60
2019-02-22T03:11:01.792Z,26.40
2019-02-22T03:12:01.760Z,24.90
2019-02-22T03:13:01.797Z,24.50
2019-02-22T03:14:01.767Z,22.70
2019-02-22T03:15:01.741Z,23.80
2019-02-22T03:16:01.745Z,22.30
2019-02-22T03:17:01.741Z,22.30
2019-02-22T03:18:01.702Z,22.20
2019-02-22T03:19:01.723Z,22.00
2019-02-22T03:20:01.669Z,21.80
2019-02-22T03:21:01.685Z,22.00
2019-02-22T03:22:01.684Z,22.30
2019-02-22T03:23:01.670Z,21.50
2019-02-22T03:24:01.625Z,22.30
2019-02-22T03:25:01.627Z,21.40
2019-02-22T03:26:01.610Z,22.50
2019-02-22T03:27:01.629Z,21.20
2019-02-22T03:28:01.655Z,20.60
2019-02-22T03:29:01.700Z,20.10
2019-02-22T03:30:01.561Z,20.20
2019-02-22T03:31:01.559Z,20.50
2019-02-22T03:32:01.538Z,19.60
2019-02-22T03:33:01.538Z,19.30
2019-02-22T03:34:01.550Z,21.80
2019-02-22T03:35:01.507Z,20.40
2019-02-22T03:36:01.540Z,20.30
2019-02-22T03:37:01.513Z,20.30
2019-02-22T03:38:01.520Z,21.00
2019-02-22T03:39:01.483Z,19.60
2019-02-22T03:40:01.476Z,21.00
2019-02-22T03:41:01.449Z,22.90
2019-02-22T03:42:01.431Z,22.90
2019-02-22T03:43:01.420Z,20.10
2019-02-22T03:44:01.474Z,19.90
2019-02-22T03:45:01.413Z,21.10
2019-02-22T03:46:01.437Z,20.10
2019-02-22T03:47:01.374Z,18.70
2019-02-22T03:48:01.377Z,20.70
2019-02-22T03:49:01.383Z,21.00
2019-02-22T03:50:01.350Z,20.00
2019-02-22T03:51:01.359Z,19.40
2019-02-22T03:52:01.361Z,18.80
2019-02-22T03:53:01.368Z,19.20
2019-02-22T03:54:01.352Z,20.00
2019-02-22T03:55:01.338Z,21.10
2019-02-22T03:56:01.324Z,19.70
2019-02-22T03:57:01.304Z,21.20
2019-02-22T03:58:01.285Z,19.50
2019-02-22T03:59:01.250Z,20.60
2019-02-22T04:00:01.266Z,19.60
2019-02-22T04:01:01.272Z,21.70
2019-02-22T04:02:01.221Z,20.40
2019-02-22T04:03:01.246Z,22.00
2019-02-22T04:04:01.196Z,20.90
2019-02-22T04:05:01.218Z,19.70
2019-02-22T04:06:01.199Z,22.00
2019-02-22T04:07:01.190Z,21.70
2019-02-22T04:08:01.194Z,20.70
2019-02-22T04:09:01.154Z,20.50
2019-02-22T04:10:01.286Z,20.80
2019-02-22T04:11:01.123Z,20.20
2019-02-22T04:12:01.118Z,21.00
2019-02-22T04:13:01.099Z,20.30
2019-02-22T04:14:01.086Z,20.50
2019-02-22T04:15:01.110Z,19.60
2019-02-22T04:16:01.077Z,20.20
2019-02-22T04:17:01.054Z,20.20
2019-02-22T04:18:01.073Z,21.10
2019-02-22T04:19:01.114Z,19.80
2019-02-22T04:20:01.044Z,19.20
2019-02-22T04:21:01.023Z,19.80
2019-02-22T04:22:01.040Z,22.00
2019-02-22T04:23:01.001Z,21.70
2019-02-22T04:24:00.993Z,20.30
2019-02-22T04:25:01.017Z,21.20
2019-02-22T04:26:00.974Z,21.80
2019-02-22T04:27:00.969Z,20.40
2019-02-22T04:28:00.990Z,21.70
2019-02-22T04:29:00.939Z,20.40
2019-02-22T04:30:00.949Z,19.60
2019-02-22T04:31:00.906Z,21.90
2019-02-22T04:32:00.949Z,23.40
2019-02-22T04:33:00.905Z,21.70
2019-02-22T04:34:00.906Z,23.60
2019-02-22T04:35:00.917Z,21.80
2019-02-22T04:36:00.867Z,22.20
2019-02-22T04:37:00.873Z,21.10
2019-02-22T04:38:00.845Z,20.50
2019-02-22T04:39:00.817Z,21.70
2019-02-22T04:40:00.837Z,21.40
2019-02-22T04:41:00.844Z,21.30
2019-02-22T04:42:00.795Z,23.50
2019-02-22T04:43:00.784Z,20.90
2019-02-22T04:44:00.795Z,20.90
2019-02-22T04:45:00.784Z,22.10
2019-02-22T04:46:00.755Z,21.40
2019-02-22T04:47:00.745Z,20.70
2019-02-22T04:48:00.751Z,21.70
2019-02-22T04:49:00.708Z,23.50
2019-02-22T04:50:00.741Z,21.80
2019-02-22T04:51:00.703Z,22.20
2019-02-22T04:52:00.686Z,21.70
2019-02-22T04:53:00.694Z,22.20
2019-02-22T04:54:00.656Z,21.30
2019-02-22T04:55:00.669Z,22.80
2019-02-22T04:56:00.698Z,21.40
2019-02-22T04:57:00.633Z,21.50
2019-02-22T04:58:00.631Z,21.90
2019-02-22T04:59:00.628Z,22.10
2019-02-22T05:00:00.606Z,21.50
2019-02-22T05:01:00.621Z,22.50
2019-02-22T05:02:00.569Z,24.50
2019-02-22T05:03:00.573Z,24.10
2019-02-22T05:04:00.561Z,24.30
2019-02-22T05:05:00.562Z,23.70
2019-02-22T05:06:01.074Z,23.40
2019-02-22T05:07:00.531Z,23.10
2019-02-22T05:08:00.556Z,22.20
2019-02-22T05:09:00.495Z,23.70
2019-02-22T05:10:00.532Z,21.90
2019-02-22T05:11:01.161Z,22.00
2019-02-22T05:12:10.334Z,22.10
2019-02-22T05:13:01.469Z,24.70
2019-02-22T05:14:00.449Z,23.30
2019-02-22T05:15:11.999Z,22.90
2019-02-22T05:16:01.482Z,23.00
2019-02-22T05:17:00.434Z,23.30
2019-02-22T05:18:00.417Z,22.40
2019-02-22T05:19:00.388Z,22.30
2019-02-22T05:20:00.375Z,22.70
2019-02-22T05:21:00.366Z,24.50
2019-02-22T05:22:00.527Z,24.00
2019-02-22T05:23:03.714Z,23.50
2019-02-22T05:24:01.334Z,22.90
2019-02-22T05:25:00.552Z,23.80
2019-02-22T05:26:00.311Z,23.30
2019-02-22T05:27:00.341Z,22.60
2019-02-22T05:28:00.306Z,23.50
2019-02-22T05:29:00.292Z,22.90
2019-02-22T05:30:00.408Z,23.70
2019-02-22T05:31:00.303Z,21.70
2019-02-22T05:32:00.283Z,22.80
2019-02-22T05:33:00.234Z,22.80
2019-02-22T05:34:00.247Z,23.60
2019-02-22T05:35:00.370Z,24.20
2019-02-22T05:36:00.257Z,22.30
2019-02-22T05:37:00.208Z,22.00
2019-02-22T05:38:00.182Z,22.10
2019-02-22T05:39:00.211Z,23.00
2019-02-22T05:40:00.504Z,21.60
2019-02-22T05:41:00.203Z,21.20
2019-02-22T05:42:00.225Z,21.40
2019-02-22T05:43:00.143Z,21.50
2019-02-22T05:44:00.117Z,20.40
2019-02-22T05:45:00.406Z,21.90
2019-02-22T05:46:00.096Z,21.50
2019-02-22T05:47:00.770Z,20.70
2019-02-22T05:48:00.074Z,21.00
2019-02-22T05:49:00.095Z,20.50
2019-02-22T05:50:00.178Z,22.20
2019-02-22T05:51:00.075Z,23.20
2019-02-22T05:52:00.075Z,23.00
2019-02-22T05:53:00.025Z,21.60
2019-02-22T05:54:00.012Z,21.40
2019-02-22T05:55:00.001Z,22.00
2019-02-22T05:56:00.104Z,20.10
2019-02-22T05:57:00.181Z,21.20
2019-02-22T05:58:00.081Z,22.10
2019-02-22T05:59:00.096Z,20.50
2019-02-22T06:00:00.321Z,20.00
2019-02-22T06:01:00.024Z,20.20
2019-02-22T06:02:00.077Z,21.10
2019-02-22T06:03:00.025Z,21.70
2019-02-22T06:04:00.003Z,23.60
2019-02-22T06:04:59.999Z,22.70
2019-02-22T06:06:00.015Z,22.20
2019-02-22T06:07:00.072Z,25.20
2019-02-22T06:07:59.998Z,23.10
2019-02-22T06:09:00.012Z,23.00
2019-02-22T06:09:59.884Z,24.90
2019-02-22T06:10:59.868Z,23.40
2019-02-22T06:11:59.892Z,23.00
2019-02-22T06:13:00.046Z,23.60
2019-02-22T06:13:59.852Z,22.00
2019-02-22T06:14:59.838Z,21.90
2019-02-22T06:15:59.808Z,21.80
2019-02-22T06:16:59.894Z,22.00
2019-02-22T06:17:59.818Z,21.20
2019-02-22T06:18:59.818Z,23.40
2019-02-22T06:19:59.812Z,23.00
2019-02-22T06:20:59.869Z,23.70
2019-02-22T06:21:59.863Z,22.80
2019-02-22T06:22:59.759Z,24.00
2019-02-22T06:24:02.540Z,23.20
2019-02-22T06:24:59.702Z,23.30
2019-02-22T06:25:59.723Z,22.20
2019-02-22T06:26:59.767Z,22.40
2019-02-22T06:27:59.816Z,23.70
2019-02-22T06:29:00.012Z,23.10
2019-02-22T06:29:59.740Z,22.50
2019-02-22T06:30:59.742Z,23.40
2019-02-22T06:31:59.737Z,23.80
2019-02-22T06:32:59.721Z,22.90
2019-02-22T06:33:59.664Z,22.40
2019-02-22T06:34:59.678Z,23.30
2019-02-22T06:35:59.646Z,21.80
2019-02-22T06:37:02.106Z,21.80
2019-02-22T06:37:59.655Z,21.60
2019-02-22T06:38:59.867Z,21.60
2019-02-22T06:39:59.612Z,23.00
2019-02-22T06:40:59.601Z,22.10
2019-02-22T06:41:59.707Z,24.70
2019-02-22T06:42:59.641Z,24.30
2019-02-22T06:43:59.587Z,23.40
2019-02-22T06:44:59.633Z,22.70
2019-02-22T06:45:59.551Z,22.20
2019-02-22T06:46:59.539Z,22.80
2019-02-22T06:47:59.479Z,23.60
2019-02-22T06:48:59.501Z,23.00
2019-02-22T06:49:59.528Z,22.90
2019-02-22T06:50:59.447Z,25.00
2019-02-22T06:51:59.475Z,23.80
2019-02-22T06:52:59.436Z,23.10
2019-02-22T06:53:59.441Z,24.70
2019-02-22T06:54:59.512Z,25.10
2019-02-22T06:55:59.459Z,24.10
2019-02-22T06:56:59.568Z,23.60
2019-02-22T06:57:59.388Z,25.50
2019-02-22T06:58:59.362Z,24.40
2019-02-22T06:59:59.391Z,23.10
2019-02-22T07:00:59.317Z,24.50
2019-02-22T07:01:59.386Z,23.10
2019-02-22T07:02:59.301Z,23.10
2019-02-22T07:03:59.278Z,23.20
2019-02-22T07:05:00.317Z,22.20
2019-02-22T07:05:59.351Z,22.40
2019-02-22T07:06:59.370Z,23.10
2019-02-22T07:07:59.296Z,23.00
2019-02-22T07:08:59.249Z,23.80
2019-02-22T07:09:59.328Z,24.20
2019-02-22T07:10:59.318Z,24.80
2019-02-22T07:11:59.234Z,25.30
2019-02-22T07:12:59.270Z,25.80
2019-02-22T07:13:59.273Z,25.00
2019-02-22T07:14:59.172Z,26.30
2019-02-22T07:15:59.299Z,25.60
2019-02-22T07:16:59.244Z,27.00
2019-02-22T07:17:59.253Z,24.70
2019-02-22T07:18:59.217Z,26.60
2019-02-22T07:19:59.139Z,29.90
2019-02-22T07:20:59.245Z,26.70
2019-02-22T07:21:59.117Z,28.70
2019-02-22T07:22:59.117Z,25.80
2019-02-22T07:23:59.191Z,26.00
2019-02-22T07:24:59.107Z,26.50
2019-02-22T07:25:59.075Z,25.90
2019-02-22T07:26:59.120Z,27.60
2019-02-22T07:27:59.141Z,27.50
2019-02-22T07:28:59.062Z,26.20
2019-02-22T07:29:59.089Z,26.90
2019-02-22T07:30:59.065Z,25.00
2019-02-22T07:32:05.917Z,24.10
2019-02-22T07:32:59.987Z,24.20
2019-02-22T07:33:59.121Z,25.00
2019-02-22T07:34:59.115Z,26.50
2019-02-22T07:35:59.044Z,24.70
2019-02-22T07:36:59.407Z,23.80
2019-02-22T07:37:58.968Z,23.60
2019-02-22T07:38:58.948Z,24.30
2019-02-22T07:39:59.008Z,24.10
2019-02-22T07:40:59.070Z,26.40
2019-02-22T07:41:58.999Z,28.70
2019-02-22T07:43:07.752Z,26.30
2019-02-22T07:44:00.186Z,26.40
2019-02-22T07:44:58.996Z,25.80
2019-02-22T07:45:59.149Z,27.70
2019-02-22T07:46:58.894Z,26.10
2019-02-22T07:47:59.073Z,26.00
2019-02-22T07:48:58.964Z,25.10
2019-02-22T07:49:59.022Z,28.60
2019-02-22T07:50:58.977Z,26.80
2019-02-22T07:51:58.779Z,26.80
2019-02-22T07:52:58.891Z,24.30
2019-02-22T07:53:59.062Z,27.00
2019-02-22T07:54:58.825Z,26.10
2019-02-22T07:55:58.765Z,26.70
2019-02-22T07:56:59.033Z,24.60
2019-02-22T07:57:58.966Z,25.50
2019-02-22T07:58:58.845Z,25.10
2019-02-22T07:59:58.933Z,25.00
2019-02-22T08:00:58.846Z,25.20
2019-02-22T08:01:58.773Z,26.00
2019-02-22T08:02:58.811Z,24.60
2019-02-22T08:03:58.741Z,25.50
2019-02-22T08:04:58.705Z,27.10
2019-02-22T08:05:58.736Z,27.00
2019-02-22T08:06:58.739Z,29.00
2019-02-22T08:07:58.740Z,25.60
2019-02-22T08:08:58.660Z,25.60
2019-02-22T08:09:58.606Z,27.20
2019-02-22T08:10:58.568Z,25.40
2019-02-22T08:11:58.572Z,30.20
2019-02-22T08:12:58.711Z,26.80
2019-02-22T08:13:58.586Z,25.80
2019-02-22T08:14:58.776Z,28.70
2019-02-22T08:15:58.596Z,28.10
2019-02-22T08:16:58.661Z,27.00
2019-02-22T08:17:58.543Z,27.10
2019-02-22T08:19:01.758Z,26.70
2019-02-22T08:19:58.485Z,26.30
2019-02-22T08:20:58.537Z,26.10
2019-02-22T08:21:58.443Z,25.90
2019-02-22T08:22:58.558Z,26.30
2019-02-22T08:23:58.446Z,28.00
2019-02-22T08:24:58.442Z,28.50
2019-02-22T08:25:58.454Z,26.20
2019-02-22T08:26:58.526Z,26.50
2019-02-22T08:27:58.498Z,27.40
2019-02-22T08:28:58.522Z,27.40
2019-02-22T08:29:58.514Z,26.50
2019-02-22T08:30:58.462Z,27.60
2019-02-22T08:31:58.467Z,24.50
2019-02-22T08:32:58.504Z,25.70
2019-02-22T08:33:58.386Z,26.00
2019-02-22T08:34:58.532Z,27.80
2019-02-22T08:35:58.484Z,27.90
2019-02-22T08:36:58.349Z,28.60
2019-02-22T08:37:58.345Z,27.20
2019-02-22T08:38:58.380Z,26.20
2019-02-22T08:39:59.031Z,29.80
2019-02-22T08:40:58.298Z,27.30
2019-02-22T08:41:58.332Z,26.60
2019-02-22T08:42:58.241Z,28.00
2019-02-22T08:43:58.340Z,29.30
2019-02-22T08:44:58.276Z,28.20
2019-02-22T08:45:58.265Z,26.10
2019-02-22T08:46:58.202Z,27.70
2019-02-22T08:47:58.392Z,26.60
2019-02-22T08:48:58.212Z,26.80
2019-02-22T08:49:58.210Z,27.40
2019-02-22T08:50:58.164Z,28.00
2019-02-22T08:51:58.133Z,28.70
2019-02-22T08:52:58.229Z,28.50
2019-02-22T08:53:58.191Z,27.90
2019-02-22T08:54:58.109Z,28.50
2019-02-22T08:55:59.734Z,30.30
2019-02-22T08:56:58.148Z,29.30
2019-02-22T08:57:58.141Z,31.90
2019-02-22T08:58:58.241Z,27.70
2019-02-22T08:59:58.160Z,29.60
2019-02-22T09:00:58.266Z,27.20
2019-02-22T09:01:58.154Z,27.80
2019-02-22T09:02:58.110Z,28.10
2019-02-22T09:03:58.035Z,28.00
2019-02-22T09:04:58.119Z,28.40
2019-02-22T09:05:59.801Z,27.40
2019-02-22T09:06:58.023Z,27.90
2019-02-22T09:07:58.024Z,27.00
2019-02-22T09:08:58.015Z,27.40
2019-02-22T09:09:57.932Z,29.70
2019-02-22T09:11:00.827Z,29.40
2019-02-22T09:11:57.985Z,28.70
2019-02-22T09:12:58.043Z,29.60
2019-02-22T09:13:58.042Z,29.00
2019-02-22T09:14:58.023Z,28.70
2019-02-22T09:15:58.077Z,28.00
2019-02-22T09:16:57.857Z,27.50
2019-02-22T09:17:57.915Z,28.70
2019-02-22T09:18:57.921Z,28.70
2019-02-22T09:19:58.003Z,29.20
2019-02-22T09:20:57.912Z,31.10
2019-02-22T09:21:57.853Z,29.90
2019-02-22T09:22:57.830Z,30.90
2019-02-22T09:23:57.786Z,28.90
2019-02-22T09:24:57.812Z,31.50
2019-02-22T09:25:57.935Z,31.10
2019-02-22T09:26:59.678Z,29.10
2019-02-22T09:27:57.853Z,30.70
2019-02-22T09:28:57.744Z,33.30
2019-02-22T09:29:59.089Z,30.20
2019-02-22T09:30:57.704Z,31.30
2019-02-22T09:31:57.801Z,32.70
2019-02-22T09:32:57.721Z,30.90
2019-02-22T09:33:57.757Z,32.60
2019-02-22T09:34:57.843Z,32.00
2019-02-22T09:35:57.730Z,32.10
2019-02-22T09:36:57.838Z,29.60
2019-02-22T09:37:57.734Z,31.70
2019-02-22T09:38:57.864Z,31.40
2019-02-22T09:39:57.638Z,30.30
2019-02-22T09:40:57.628Z,31.60
2019-02-22T09:41:57.700Z,31.50
2019-02-22T09:42:57.746Z,32.50
2019-02-22T09:43:57.756Z,30.80
2019-02-22T09:44:57.671Z,31.40
2019-02-22T09:45:57.623Z,30.40
2019-02-22T09:46:57.720Z,29.40
2019-02-22T09:47:57.560Z,29.20
2019-02-22T09:48:57.537Z,31.00
2019-02-22T09:49:57.576Z,30.00
2019-02-22T09:50:57.570Z,30.80
2019-02-22T09:51:57.492Z,32.60
2019-02-22T09:53:00.417Z,30.60
2019-02-22T09:53:57.559Z,31.90
2019-02-22T09:54:57.824Z,33.60
2019-02-22T09:55:57.574Z,32.70
2019-02-22T09:56:57.546Z,30.70
2019-02-22T09:57:57.512Z,31.10
2019-02-22T09:58:57.521Z,30.70
2019-02-22T09:59:57.540Z,30.70
2019-02-22T10:00:57.403Z,29.40
2019-02-22T10:01:57.461Z,27.90
2019-02-22T10:02:57.423Z,28.70
2019-02-22T10:03:57.381Z,26.00
2019-02-22T10:04:57.457Z,26.70
2019-02-22T10:05:57.370Z,26.90
2019-02-22T10:06:57.508Z,27.40
2019-02-22T10:07:57.496Z,25.60
2019-02-22T10:08:57.389Z,25.40
2019-02-22T10:09:57.377Z,24.50
2019-02-22T10:10:57.356Z,26.60
2019-02-22T10:11:57.337Z,25.20
2019-02-22T10:12:57.443Z,23.90
2019-02-22T10:14:06.357Z,26.00
2019-02-22T10:14:58.248Z,26.40
2019-02-22T10:15:57.335Z,27.50
2019-02-22T10:16:57.241Z,25.80
2019-02-22T10:17:57.330Z,25.80
2019-02-22T10:18:57.254Z,24.90
2019-02-22T10:19:57.286Z,25.50
2019-02-22T10:20:57.247Z,26.00
2019-02-22T10:21:57.750Z,23.80
2019-02-22T10:22:57.211Z,23.50
2019-02-22T10:23:57.224Z,24.40
2019-02-22T10:24:57.184Z,23.40
2019-02-22T10:25:57.231Z,23.90
2019-02-22T10:26:57.204Z,23.30
2019-02-22T10:27:57.272Z,23.20
2019-02-22T10:28:57.230Z,23.00
2019-02-22T10:29:57.097Z,22.60
2019-02-22T10:30:57.187Z,22.10
2019-02-22T10:31:57.103Z,23.70
2019-02-22T10:32:57.050Z,22.30
2019-02-22T10:33:57.057Z,21.50
2019-02-22T10:34:57.054Z,22.50
2019-02-22T10:35:57.120Z,21.60
2019-02-22T10:36:57.209Z,22.70
2019-02-22T10:37:57.024Z,22.20
2019-02-22T10:38:57.232Z,24.40
2019-02-22T10:39:56.969Z,22.50
2019-02-22T10:40:56.956Z,22.50
2019-02-22T10:41:56.952Z,22.70
2019-02-22T10:42:56.925Z,22.30
2019-02-22T10:43:57.062Z,22.70
2019-02-22T10:44:56.994Z,22.60
2019-02-22T10:45:56.981Z,21.30
2019-02-22T10:46:56.968Z,22.20
2019-02-22T10:47:56.951Z,22.60
2019-02-22T10:48:57.007Z,22.10
2019-02-22T10:49:56.950Z,20.60
2019-02-22T10:50:59.295Z,20.60
2019-02-22T10:51:56.899Z,21.70
2019-02-22T10:53:02.229Z,20.40
2019-02-22T10:53:57.948Z,20.10
2019-02-22T10:54:57.833Z,20.20
2019-02-22T10:55:56.908Z,19.80
2019-02-22T10:56:56.931Z,20.30
2019-02-22T10:57:56.880Z,18.80
2019-02-22T10:58:57.089Z,19.00
2019-02-22T10:59:56.934Z,19.20
2019-02-22T11:00:56.862Z,19.30
2019-02-22T11:01:56.789Z,17.20
2019-02-22T11:02:56.810Z,18.70
2019-02-22T11:03:56.729Z,17.80
2019-02-22T11:04:56.759Z,17.80
2019-02-22T11:05:56.728Z,16.90
2019-02-22T11:06:56.681Z,17.90
2019-02-22T11:07:56.683Z,18.80
2019-02-22T11:08:56.748Z,18.10
2019-02-22T11:09:56.751Z,17.90
2019-02-22T11:10:56.725Z,18.10
2019-02-22T11:11:56.724Z,18.40
2019-02-22T11:12:56.629Z,19.10
2019-02-22T11:13:56.596Z,18.40
2019-02-22T11:14:56.707Z,18.10
2019-02-22T11:15:56.666Z,18.00
2019-02-22T11:16:56.614Z,17.60
2019-02-22T11:17:56.614Z,18.50
2019-02-22T11:18:56.622Z,17.50
2019-02-22T11:19:56.632Z,17.10
2019-02-22T11:20:56.545Z,18.20
2019-02-22T11:21:56.517Z,17.50
2019-02-22T11:22:56.525Z,18.30
2019-02-22T11:23:56.483Z,18.40
2019-02-22T11:24:56.515Z,19.00
2019-02-22T11:25:56.524Z,19.00
2019-02-22T11:26:56.520Z,18.70
2019-02-22T11:27:56.458Z,17.90
2019-02-22T11:28:56.494Z,19.40
2019-02-22T11:29:56.453Z,18.50
2019-02-22T11:30:56.438Z,19.40
2019-02-22T11:31:56.505Z,18.90
2019-02-22T11:32:56.392Z,19.30
2019-02-22T11:33:56.438Z,18.40
2019-02-22T11:34:56.375Z,18.40
2019-02-22T11:35:56.398Z,18.20
2019-02-22T11:36:56.413Z,18.20
2019-02-22T11:37:56.369Z,17.80
2019-02-22T11:38:56.549Z,17.60
2019-02-22T11:39:56.567Z,17.10
2019-02-22T11:40:56.404Z,16.90
2019-02-22T11:41:56.338Z,17.60
2019-02-22T11:42:56.320Z,17.80
2019-02-22T11:43:56.279Z,18.00
2019-02-22T11:44:56.352Z,17.60
2019-02-22T11:45:56.277Z,18.70
2019-02-22T11:46:56.300Z,17.00
2019-02-22T11:47:56.227Z,18.30
2019-02-22T11:48:56.247Z,17.90
2019-02-22T11:49:56.271Z,17.70
2019-02-22T11:50:56.337Z,18.20
2019-02-22T11:51:56.234Z,17.40
2019-02-22T11:52:56.416Z,17.60
2019-02-22T11:53:56.185Z,17.40
2019-02-22T11:54:56.193Z,17.40
2019-02-22T11:55:56.164Z,18.60
2019-02-22T11:56:56.403Z,18.10
2019-02-22T11:57:56.163Z,17.80
2019-02-22T11:58:56.244Z,17.50
2019-02-22T11:59:56.141Z,17.50
2019-02-22T12:00:56.117Z,16.60
2019-02-22T12:01:56.177Z,16.70
2019-02-22T12:02:56.179Z,17.00
2019-02-22T12:03:56.110Z,16.10
2019-02-22T12:04:56.060Z,16.10
2019-02-22T12:05:56.073Z,16.10
2019-02-22T12:06:56.148Z,16.40
2019-02-22T12:07:56.069Z,16.90
2019-02-22T12:08:56.128Z,16.20
2019-02-22T12:09:56.076Z,16.10
2019-02-22T12:10:56.065Z,16.60
2019-02-22T12:11:56.043Z,16.40
2019-02-22T12:12:56.095Z,16.00
2019-02-22T12:13:56.049Z,15.70
2019-02-22T12:14:56.040Z,15.60
2019-02-22T12:15:56.015Z,15.00
2019-02-22T12:16:56.044Z,14.10
2019-02-22T12:17:55.992Z,12.50
2019-02-22T12:18:56.002Z,13.30
2019-02-22T12:19:55.963Z,14.30
2019-02-22T12:20:55.910Z,14.20
2019-02-22T12:21:55.883Z,13.50
2019-02-22T12:22:55.972Z,13.60
2019-02-22T12:23:55.851Z,12.90
2019-02-22T12:24:55.841Z,13.80
2019-02-22T12:25:55.887Z,13.20
2019-02-22T12:26:55.974Z,12.70
2019-02-22T12:27:56.132Z,12.20
2019-02-22T12:28:55.869Z,11.50
2019-02-22T12:29:55.838Z,12.40
2019-02-22T12:30:55.863Z,11.50
2019-02-22T12:31:55.858Z,12.00
2019-02-22T12:32:55.875Z,11.80
2019-02-22T12:33:55.747Z,11.70
2019-02-22T12:34:55.768Z,11.50
2019-02-22T12:35:55.757Z,11.10
2019-02-22T12:36:55.724Z,11.50
2019-02-22T12:37:55.736Z,10.60
2019-02-22T12:38:55.702Z,11.70
2019-02-22T12:39:55.809Z,10.80
2019-02-22T12:40:55.676Z,10.70
2019-02-22T12:41:55.726Z,10.60
2019-02-22T12:42:55.655Z,11.30
2019-02-22T12:43:55.686Z,11.20
2019-02-22T12:45:02.935Z,12.10
2019-02-22T12:45:56.689Z,11.40
2019-02-22T12:46:55.634Z,12.00
2019-02-22T12:47:55.624Z,11.00
2019-02-22T12:48:55.715Z,11.60
2019-02-22T12:49:55.669Z,11.20
2019-02-22T12:50:55.530Z,11.50
2019-02-22T12:51:55.521Z,11.30